Time;durP1;ratioP1;P1;durP2;ratioP2;P2;SDS_P1;SDS_P2;PMS_P1;PMS_P2;Temp;Humidity;BMP_temperature;BMP_pressure;BME280_temperature;BME280_humidity;BME280_pressure;Samples;Min_cycle;Max_cycle;Signal;HPM_P1;HPM_P2
2022/04/09 00:00:24;;;;;;;7.45;1.92;;;;;;;4.98;64.81;100211.25;5092514;28;20024;-43
2022/04/09 00:02:50;;;;;;;6.32;2.05;;;;;;;5.07;64.39;100216.59;5094646;28;20036;-43
2022/04/09 00:05:16;;;;;;;8.00;2.72;;;;;;;5.09;64.24;100218.09;5106184;28;20096;-43
2022/04/09 00:07:43;;;;;;;5.35;2.50;;;;;;;5.12;64.12;100224.91;5095395;28;20027;-44
2022/04/09 00:10:11;;;;;;;8.85;2.40;;;;;;;5.15;64.49;100220.09;5114398;28;20088;-43
2022/04/09 00:12:38;;;;;;;6.35;2.33;;;;;;;5.12;64.25;100223.09;5114370;28;20420;-44
2022/04/09 00:15:05;;;;;;;7.32;2.00;;;;;;;5.18;63.88;100234.91;5113601;28;20028;-45
2022/04/09 00:17:37;;;;;;;4.88;2.22;;;;;;;5.15;64.67;100227.25;5095523;28;20035;-44
2022/04/09 00:20:04;;;;;;;7.00;2.13;;;;;;;5.18;64.73;100241.06;5114129;28;20057;-43
2022/04/09 00:22:31;;;;;;;11.05;2.55;;;;;;;5.05;64.74;100230.06;5114789;28;20412;-43
2022/04/09 00:24:57;;;;;;;11.07;2.55;;;;;;;5.12;64.88;100259.53;5114872;28;20020;-43
2022/04/09 00:27:23;;;;;;;5.45;2.33;;;;;;;5.08;65.06;100267.00;5115027;28;20035;-46
2022/04/09 00:29:49;;;;;;;7.88;2.28;;;;;;;5.01;65.07;100263.31;5099300;28;20039;-45
2022/04/09 00:32:15;;;;;;;8.07;2.00;;;;;;;4.97;65.21;100272.63;5101388;28;20028;-48
2022/04/09 00:34:42;;;;;;;5.75;2.03;;;;;;;4.80;65.63;100250.47;5120013;28;20027;-45
2022/04/09 00:37:08;;;;;;;6.00;2.47;;;;;;;4.85;65.29;100283.56;5119704;28;20024;-43
2022/04/09 00:39:34;;;;;;;5.25;2.42;;;;;;;4.79;65.53;100278.91;5120089;28;20039;-46
2022/04/09 00:42:00;;;;;;;5.50;2.30;;;;;;;4.74;65.78;100272.41;5119228;28;20024;-44
2022/04/09 00:44:27;;;;;;;11.43;2.95;;;;;;;4.69;65.73;100272.84;5101155;28;20440;-49
2022/04/09 00:46:58;;;;;;;11.60;3.28;;;;;;;4.65;66.05;100285.66;5102232;28;20035;-48
2022/04/09 00:49:28;;;;;;;9.60;3.17;;;;;;;4.59;65.66;100277.50;5101223;28;20063;-44
2022/04/09 00:52:04;;;;;;;4.47;2.33;;;;;;;4.51;66.08;100280.09;5100955;28;20038;-47
2022/04/09 00:54:38;;;;;;;6.05;2.30;;;;;;;4.45;66.60;100286.88;5119957;28;20080;-46
2022/04/09 00:57:10;;;;;;;7.53;2.40;;;;;;;4.40;66.71;100292.69;5101050;28;20115;-44
2022/04/09 00:59:42;;;;;;;7.30;2.20;;;;;;;4.31;66.67;100304.25;5102403;28;20024;-44
2022/04/09 01:02:11;;;;;;;4.72;2.00;;;;;;;4.21;66.13;100303.50;5101686;28;20033;-47
2022/04/09 01:04:44;;;;;;;7.53;2.38;;;;;;;4.12;67.32;100301.78;5097636;28;20131;-44
2022/04/09 01:07:11;;;;;;;5.60;2.00;;;;;;;4.15;67.86;100314.78;5099578;28;20066;-44
2022/04/09 01:09:44;;;;;;;5.20;1.95;;;;;;;4.10;67.00;100323.19;5097815;28;20024;-49
2022/04/09 01:12:14;;;;;;;7.88;1.95;;;;;;;4.04;66.92;100315.84;5097896;28;20040;-44
2022/04/09 01:14:41;;;;;;;5.40;2.17;;;;;;;3.97;67.12;100310.31;5097800;28;20412;-45
2022/04/09 01:17:08;;;;;;;3.35;2.03;;;;;;;3.87;66.51;100305.09;5097734;28;20024;-45
2022/04/09 01:19:35;;;;;;;4.07;2.45;;;;;;;3.90;67.35;100316.41;5097288;28;20028;-44
2022/04/09 01:22:03;;;;;;;4.38;2.30;;;;;;;3.88;67.52;100324.53;5097569;28;20034;-44
2022/04/09 01:24:34;;;;;;;5.85;2.42;;;;;;;3.86;67.23;100315.88;5098621;28;20188;-46
2022/04/09 01:27:02;;;;;;;7.97;2.22;;;;;;;3.72;65.89;100304.00;5098297;28;20115;-44
2022/04/09 01:29:30;;;;;;;7.32;2.40;;;;;;;3.77;66.46;100319.44;5098135;28;20074;-45
2022/04/09 01:31:59;;;;;;;3.53;1.77;;;;;;;3.72;66.44;100319.09;5097484;28;20119;-45
2022/04/09 01:34:27;;;;;;;2.08;1.58;;;;;;;3.69;66.64;100315.72;5096976;28;20027;-43
2022/04/09 01:36:55;;;;;;;2.65;1.90;;;;;;;3.68;66.63;100330.03;5096629;28;20043;-44
2022/04/09 01:39:23;;;;;;;4.60;2.15;;;;;;;3.64;66.86;100323.34;5097193;28;20392;-45
2022/04/09 01:41:53;;;;;;;2.20;1.98;;;;;;;3.62;65.89;100329.78;5095001;28;20028;-44
2022/04/09 01:44:22;;;;;;;6.47;2.03;;;;;;;3.56;66.12;100333.06;5097341;28;20080;-44
2022/04/09 01:46:50;;;;;;;5.38;2.17;;;;;;;3.57;65.90;100337.38;5096144;28;20040;-46
2022/04/09 01:49:19;;;;;;;4.85;2.17;;;;;;;3.55;66.51;100347.28;5097505;28;20124;-44
2022/04/09 01:51:50;;;;;;;4.35;2.05;;;;;;;3.48;66.54;100345.25;5097571;28;20354;-44
2022/04/09 01:54:17;;;;;;;3.33;2.20;;;;;;;3.43;66.23;100352.00;5096328;28;20058;-45
2022/04/09 01:56:45;;;;;;;2.20;1.92;;;;;;;3.40;66.90;100344.31;5095093;28;20058;-43
2022/04/09 01:59:13;;;;;;;2.72;1.60;;;;;;;3.32;66.39;100337.13;5096429;28;20452;-43
2022/04/09 02:01:42;;;;;;;7.47;2.05;;;;;;;3.30;66.67;100337.25;5097616;28;20107;-43
2022/04/09 02:04:10;;;;;;;3.92;1.77;;;;;;;3.34;66.06;100348.41;5099904;28;20094;-43
2022/04/09 02:06:38;;;;;;;3.47;1.65;;;;;;;3.28;66.59;100352.50;5118147;28;20038;-44
2022/04/09 02:09:04;;;;;;;4.05;1.80;;;;;;;3.25;66.52;100358.13;5099913;28;20034;-44
2022/04/09 02:11:32;;;;;;;3.70;2.00;;;;;;;3.23;66.47;100352.13;5097787;28;20031;-44
2022/04/09 02:13:59;;;;;;;2.55;1.63;;;;;;;3.19;66.73;100363.19;5115926;28;20039;-45
2022/04/09 02:16:28;;;;;;;2.15;1.70;;;;;;;3.19;66.72;100356.03;5115522;28;20030;-43
2022/04/09 02:18:55;;;;;;;2.90;1.67;;;;;;;3.16;66.79;100372.28;5115837;28;20024;-45
2022/04/09 02:21:23;;;;;;;4.30;1.65;;;;;;;3.13;66.25;100375.22;5116194;28;20492;-43
2022/04/09 02:23:49;;;;;;;2.85;1.80;;;;;;;3.12;66.90;100378.00;5116437;28;20028;-44
2022/04/09 02:26:15;;;;;;;3.25;1.50;;;;;;;3.08;66.55;100383.63;5116900;28;20039;-44
2022/04/09 02:28:43;;;;;;;4.22;1.70;;;;;;;3.06;66.38;100377.63;5117414;28;20032;-45
2022/04/09 02:31:11;;;;;;;4.55;1.60;;;;;;;3.05;66.01;100386.56;5081116;28;20030;-43
2022/04/09 02:33:39;;;;;;;3.60;1.85;;;;;;;3.00;66.77;100390.66;5115677;28;20086;-44
2022/04/09 02:36:11;;;;;;;2.33;1.92;;;;;;;2.85;66.76;100372.56;5115799;28;20035;-44
2022/04/09 02:38:40;;;;;;;3.67;1.85;;;;;;;2.86;66.64;100384.84;5115913;28;20084;-47
2022/04/09 02:41:09;;;;;;;3.30;2.60;;;;;;;2.76;66.59;100367.28;5115857;28;20034;-44
2022/04/09 02:43:38;;;;;;;3.10;2.35;;;;;;;2.86;66.73;100394.59;5080554;28;20035;-44
2022/04/09 02:46:07;;;;;;;1.90;1.77;;;;;;;2.84;67.14;100400.06;5116226;28;20058;-44
2022/04/09 02:48:35;;;;;;;5.07;1.83;;;;;;;2.81;67.00;100413.63;5115648;28;20054;-45
2022/04/09 02:51:02;;;;;;;4.57;1.77;;;;;;;2.78;67.03;100408.59;5115156;28;20032;-44
2022/04/09 02:53:31;;;;;;;2.35;1.73;;;;;;;2.75;67.30;100410.69;5114735;28;20087;-46
2022/04/09 02:55:57;;;;;;;2.35;1.63;;;;;;;2.72;67.15;100409.16;5096690;28;20445;-44
2022/04/09 02:58:26;;;;;;;3.85;1.95;;;;;;;2.65;67.04;100398.28;5115235;28;20387;-47
2022/04/09 03:00:53;;;;;;;3.20;2.00;;;;;;;2.62;66.98;100406.56;5115052;28;20066;-43
2022/04/09 03:03:20;;;;;;;2.42;1.60;;;;;;;2.63;67.52;100410.88;5115194;28;20034;-45
2022/04/09 03:05:49;;;;;;;3.35;1.83;;;;;;;2.59;67.47;100409.47;5114224;28;20085;-43
2022/04/09 03:08:16;;;;;;;1.42;1.33;;;;;;;2.56;66.57;100412.41;5097002;28;20028;-43
2022/04/09 03:10:42;;;;;;;2.13;1.48;;;;;;;2.53;66.68;100410.06;5096494;28;20472;-44
2022/04/09 03:13:08;;;;;;;2.55;1.40;;;;;;;2.54;67.33;100413.53;5114755;28;20027;-44
2022/04/09 03:15:36;;;;;;;2.50;1.50;;;;;;;2.53;66.80;100423.31;5114937;28;20385;-45
2022/04/09 03:18:02;;;;;;;3.17;1.73;;;;;;;2.45;67.25;100413.44;5095894;28;20028;-47
2022/04/09 03:20:33;;;;;;;2.97;1.60;;;;;;;2.47;67.09;100426.50;5114631;28;20027;-44
2022/04/09 03:23:02;;;;;;;3.65;1.50;;;;;;;2.45;67.35;100426.69;5114844;28;20023;-43
2022/04/09 03:25:30;;;;;;;3.58;1.40;;;;;;;2.35;66.75;100423.19;5114100;28;20027;-45
2022/04/09 03:27:59;;;;;;;2.08;1.67;;;;;;;2.42;67.53;100434.91;5113789;28;20084;-45
2022/04/09 03:30:27;;;;;;;2.10;1.70;;;;;;;2.39;67.29;100429.88;5114090;28;20485;-45
2022/04/09 03:32:54;;;;;;;3.33;1.75;;;;;;;2.35;67.84;100436.44;5114329;28;20450;-45
2022/04/09 03:35:22;;;;;;;5.90;2.22;;;;;;;2.29;67.71;100429.91;5078829;28;20027;-46
2022/04/09 03:37:51;;;;;;;6.07;2.00;;;;;;;2.29;68.04;100435.19;5096269;28;20035;-46
2022/04/09 03:40:19;;;;;;;3.78;2.22;;;;;;;2.17;68.13;100425.72;5114068;28;20035;-47
2022/04/09 03:42:49;;;;;;;2.22;1.98;;;;;;;2.25;68.15;100444.41;5114138;28;20467;-44
2022/04/09 03:45:15;;;;;;;2.72;1.90;;;;;;;2.19;68.74;100437.03;5114695;28;20035;-43
2022/04/09 03:47:43;;;;;;;3.15;1.90;;;;;;;2.21;68.25;100456.28;5114128;28;20031;-43
2022/04/09 03:50:12;;;;;;;5.80;2.28;;;;;;;2.17;69.09;100457.50;5095922;28;20058;-43
2022/04/09 03:52:38;;;;;;;3.72;2.15;;;;;;;2.18;68.95;100463.66;5114019;28;20020;-44
2022/04/09 03:55:09;;;;;;;3.45;2.00;;;;;;;2.12;69.43;100454.47;5095741;28;20473;-45
2022/04/09 03:57:38;;;;;;;2.35;1.90;;;;;;;2.00;69.28;100451.09;5096465;28;20031;-43
2022/04/09 04:00:10;;;;;;;2.55;1.88;;;;;;;2.07;69.84;100469.91;5113447;28;20027;-43
2022/04/09 04:02:39;;;;;;;5.40;2.22;;;;;;;1.90;69.68;100459.03;5113749;28;20028;-43
2022/04/09 04:05:08;;;;;;;7.40;2.50;;;;;;;1.98;69.75;100462.81;5116645;28;20058;-43
2022/04/09 04:07:37;;;;;;;2.83;2.40;;;;;;;1.95;70.11;100466.56;5118072;28;20448;-43
2022/04/09 04:10:10;;;;;;;6.88;2.90;;;;;;;1.93;70.32;100473.78;5117950;28;20093;-43
2022/04/09 04:12:41;;;;;;;7.22;2.55;;;;;;;1.92;70.28;100474.78;5117708;28;20456;-43
2022/04/09 04:15:10;;;;;;;3.42;2.30;;;;;;;1.85;70.75;100468.34;5117784;28;20039;-43
2022/04/09 04:17:40;;;;;;;4.63;2.80;;;;;;;1.86;71.38;100468.22;5117568;28;20028;-43
2022/04/09 04:20:07;;;;;;;4.35;2.20;;;;;;;1.87;70.86;100474.34;5099395;28;20031;-43
2022/04/09 04:22:33;;;;;;;5.18;2.05;;;;;;;1.84;70.62;100478.13;5117846;28;20042;-43
2022/04/09 04:24:59;;;;;;;3.03;2.17;;;;;;;1.74;70.82;100474.59;5099571;28;20403;-43
2022/04/09 04:27:25;;;;;;;5.88;2.47;;;;;;;1.79;70.89;100479.50;5118514;28;20379;-43
2022/04/09 04:29:51;;;;;;;7.30;2.50;;;;;;;1.77;71.26;100487.56;5099892;28;20120;-43
2022/04/09 04:32:16;;;;;;;5.35;2.53;;;;;;;1.64;70.94;100471.94;5082401;28;20114;-44
2022/04/09 04:34:42;;;;;;;6.63;2.22;;;;;;;1.72;71.58;100493.25;5117736;28;20119;-44
2022/04/09 04:37:08;;;;;;;4.45;2.25;;;;;;;1.68;71.16;100494.50;5117410;28;20149;-43
2022/04/09 04:39:34;;;;;;;3.53;2.22;;;;;;;1.64;71.60;100495.75;5117500;28;20351;-44
2022/04/09 04:41:59;;;;;;;3.22;2.30;;;;;;;1.66;71.23;100503.56;5117209;28;20028;-44
2022/04/09 04:44:25;;;;;;;4.40;2.30;;;;;;;1.70;71.68;100512.91;5117652;28;20050;-43
2022/04/09 04:46:51;;;;;;;8.43;2.80;;;;;;;1.68;71.79;100514.88;5098749;28;20107;-45
2022/04/09 04:49:17;;;;;;;6.95;2.92;;;;;;;1.69;72.07;100520.03;5117079;28;20035;-44
2022/04/09 04:51:42;;;;;;;6.30;2.22;;;;;;;1.62;71.96;100518.06;5098664;28;20035;-44
2022/04/09 04:54:08;;;;;;;5.35;2.33;;;;;;;1.63;72.28;100515.25;5098587;28;20035;-43
2022/04/09 04:56:34;;;;;;;6.55;2.40;;;;;;;1.67;71.86;100526.41;5116107;28;20034;-43
2022/04/09 04:58:59;;;;;;;9.90;2.55;;;;;;;1.68;72.01;100525.44;5116374;28;20115;-43
2022/04/09 05:01:25;;;;;;;6.72;2.20;;;;;;;1.67;72.25;100537.84;5116563;28;20027;-43
2022/04/09 05:03:53;;;;;;;6.63;2.22;;;;;;;1.63;72.32;100527.66;5116430;28;20034;-43
2022/04/09 05:06:19;;;;;;;9.38;2.00;;;;;;;1.66;72.45;100546.75;5116960;28;20439;-43
2022/04/09 05:08:44;;;;;;;8.70;2.30;;;;;;;1.65;72.48;100538.94;5097903;28;20087;-43
2022/04/09 05:11:10;;;;;;;7.88;3.17;;;;;;;1.58;72.54;100543.09;5116570;28;20051;-43
2022/04/09 05:13:36;;;;;;;4.80;2.30;;;;;;;1.58;72.74;100545.75;5116250;28;20152;-44
2022/04/09 05:16:02;;;;;;;3.75;2.30;;;;;;;1.57;72.65;100554.66;5115963;28;20031;-43
2022/04/09 05:18:28;;;;;;;3.42;1.92;;;;;;;1.53;72.95;100559.38;5098368;28;20110;-43
2022/04/09 05:20:53;;;;;;;5.47;2.03;;;;;;;1.49;73.36;100553.53;5081324;28;20114;-43
2022/04/09 05:23:19;;;;;;;6.65;2.25;;;;;;;1.60;72.64;100579.06;5116108;28;20460;-44
2022/04/09 05:25:45;;;;;;;5.15;2.35;;;;;;;1.54;73.20;100572.50;5098398;28;20076;-44
2022/04/09 05:28:11;;;;;;;6.32;2.30;;;;;;;1.59;72.62;100579.19;5116632;28;20024;-44
2022/04/09 05:30:36;;;;;;;4.68;2.42;;;;;;;1.45;72.31;100568.00;5117002;28;20031;-44
2022/04/09 05:33:03;;;;;;;6.65;2.13;;;;;;;1.58;73.01;100588.94;5116674;28;20063;-44
2022/04/09 05:35:29;;;;;;;5.00;2.97;;;;;;;1.59;72.72;100595.06;5117191;28;20023;-46
2022/04/09 05:37:55;;;;;;;9.07;2.10;;;;;;;1.53;73.52;100581.38;5116711;28;20051;-43
2022/04/09 05:40:22;;;;;;;5.82;2.15;;;;;;;1.59;73.06;100593.25;5116603;28;20031;-45
2022/04/09 05:42:48;;;;;;;7.50;2.40;;;;;;;1.59;73.11;100590.59;5098268;28;20088;-48
2022/04/09 05:45:14;;;;;;;12.20;2.40;;;;;;;1.56;73.17;100588.25;5116020;28;20375;-43
2022/04/09 05:47:43;;;;;;;4.50;2.00;;;;;;;1.61;72.86;100599.25;5115474;28;20099;-43
2022/04/09 05:50:09;;;;;;;5.03;2.50;;;;;;;1.61;73.54;100593.13;5115834;28;20106;-43
2022/04/09 05:52:35;;;;;;;5.25;2.15;;;;;;;1.57;72.98;100587.25;5097407;28;20509;-43
2022/04/09 05:55:03;;;;;;;7.82;2.35;;;;;;;1.64;73.78;100606.94;5115674;28;20079;-43
2022/04/09 05:57:31;;;;;;;5.97;2.60;;;;;;;1.57;73.05;100594.38;5097351;28;20027;-42
2022/04/09 05:59:56;;;;;;;8.57;2.30;;;;;;;1.30;73.30;100558.69;5115494;28;20379;-43
2022/04/09 06:02:22;;;;;;;8.77;2.53;;;;;;;1.65;73.04;100611.25;5115708;28;20035;-44
2022/04/09 06:04:48;;;;;;;13.38;2.38;;;;;;;1.71;73.51;100626.63;5115146;28;20448;-46
2022/04/09 06:07:14;;;;;;;4.35;2.33;;;;;;;1.73;73.35;100632.63;5115354;28;20110;-43
2022/04/09 06:09:41;;;;;;;5.43;2.30;;;;;;;1.76;73.46;100633.31;5115809;28;20036;-44
2022/04/09 06:12:08;;;;;;;5.40;2.30;;;;;;;1.76;73.23;100626.22;5115450;28;20420;-43
2022/04/09 06:14:34;;;;;;;6.47;2.10;;;;;;;1.82;73.59;100630.13;5115179;28;20110;-45
2022/04/09 06:17:00;;;;;;;5.47;2.50;;;;;;;1.84;73.48;100637.00;5079699;28;20039;-45
2022/04/09 06:19:29;;;;;;;11.07;2.30;;;;;;;1.87;73.67;100635.88;5115120;28;20401;-43
2022/04/09 06:21:55;;;;;;;6.82;2.00;;;;;;;1.92;73.52;100639.81;5115110;28;20043;-43
2022/04/09 06:24:21;;;;;;;11.70;2.58;;;;;;;1.92;73.04;100631.84;5115218;28;20373;-43
2022/04/09 06:26:47;;;;;;;10.35;2.22;;;;;;;1.93;73.83;100630.91;5114369;28;20039;-43
2022/04/09 06:29:12;;;;;;;5.80;2.10;;;;;;;1.97;73.72;100636.78;5079699;28;20503;-45
2022/04/09 06:31:38;;;;;;;4.30;1.75;;;;;;;2.06;73.13;100646.56;5114926;28;20027;-44
2022/04/09 06:34:04;;;;;;;4.10;1.95;;;;;;;2.13;73.22;100638.91;5114932;28;20027;-44
2022/04/09 06:36:30;;;;;;;8.88;2.28;;;;;;;2.44;72.57;100649.47;5114574;28;20110;-43
2022/04/09 06:38:55;;;;;;;10.68;2.45;;;;;;;2.37;71.99;100649.16;5114506;28;20023;-43
2022/04/09 06:41:21;;;;;;;6.13;2.03;;;;;;;2.25;72.75;100643.13;5114863;28;20043;-44
2022/04/09 06:43:47;;;;;;;8.38;2.58;;;;;;;2.31;73.07;100650.53;5114925;28;20036;-44
2022/04/09 06:46:14;;;;;;;11.27;2.10;;;;;;;2.32;73.11;100654.00;5114529;28;20031;-43
2022/04/09 06:48:40;;;;;;;7.25;2.10;;;;;;;2.27;73.30;100641.19;5114550;28;20077;-47
2022/04/09 06:51:06;;;;;;;9.23;2.13;;;;;;;2.42;73.07;100662.00;5096574;28;20023;-43
2022/04/09 06:53:32;;;;;;;3.67;1.88;;;;;;;2.42;73.41;100664.66;5115037;28;20092;-45
2022/04/09 06:55:58;;;;;;;8.18;2.13;;;;;;;2.45;72.94;100662.56;5113974;28;20028;-43
2022/04/09 06:58:23;;;;;;;13.27;2.30;;;;;;;2.45;73.31;100667.88;5114752;28;20028;-44
2022/04/09 07:00:49;;;;;;;11.73;2.60;;;;;;;2.55;73.33;100681.16;5078999;28;20434;-42
2022/04/09 07:03:15;;;;;;;8.35;2.00;;;;;;;2.58;72.88;100683.53;5114823;28;20379;-43
2022/04/09 07:05:41;;;;;;;11.95;2.80;;;;;;;2.59;73.05;100681.72;5075687;28;20498;-43
2022/04/09 07:08:08;;;;;;;11.00;2.20;;;;;;;2.62;72.77;100687.59;5094120;28;20472;-43
2022/04/09 07:10:36;;;;;;;9.48;2.28;;;;;;;2.69;73.00;100690.50;5093580;28;20088;-42
2022/04/09 07:13:02;;;;;;;9.98;2.47;;;;;;;2.81;73.19;100705.34;5093448;28;20084;-42
2022/04/09 07:15:28;;;;;;;12.15;2.50;;;;;;;2.86;73.10;100700.47;5093879;28;20023;-42
2022/04/09 07:17:55;;;;;;;5.82;2.20;;;;;;;2.93;72.86;100702.56;5093873;28;20036;-44
2022/04/09 07:20:21;;;;;;;8.38;2.75;;;;;;;3.01;73.09;100706.19;5093987;28;20032;-45
2022/04/09 07:22:47;;;;;;;8.50;2.17;;;;;;;3.10;73.21;100712.47;5094097;28;20028;-43
2022/04/09 07:25:13;;;;;;;7.90;2.75;;;;;;;3.16;72.43;100706.63;5093854;28;20036;-43
2022/04/09 07:27:41;;;;;;;10.45;3.28;;;;;;;3.20;73.16;100707.19;5093882;28;20038;-44
2022/04/09 07:30:10;;;;;;;8.95;2.95;;;;;;;3.25;72.46;100711.09;5092611;28;20043;-45
2022/04/09 07:32:36;;;;;;;8.48;3.17;;;;;;;3.19;72.58;100697.53;5093808;28;20472;-45
2022/04/09 07:35:03;;;;;;;14.38;2.92;;;;;;;3.26;72.48;100712.75;5094047;28;20038;-46
2022/04/09 07:37:29;;;;;;;6.72;2.38;;;;;;;3.33;72.47;100714.88;5092612;28;20024;-48
2022/04/09 07:39:55;;;;;;;6.82;2.97;;;;;;;3.12;72.34;100672.53;5092921;28;20353;-45
2022/04/09 07:42:21;;;;;;;9.50;2.30;;;;;;;3.43;71.67;100710.38;5092314;28;20034;-46
2022/04/09 07:44:47;;;;;;;10.80;3.03;;;;;;;3.57;71.54;100725.88;5093223;28;20521;-45
2022/04/09 07:47:13;;;;;;;10.38;2.50;;;;;;;3.63;71.90;100722.66;5095357;28;20032;-46
2022/04/09 07:49:38;;;;;;;7.07;2.40;;;;;;;3.69;71.60;100726.56;5093396;28;20035;-44
2022/04/09 07:52:04;;;;;;;11.13;2.40;;;;;;;3.64;71.45;100705.75;5094812;28;20085;-44
2022/04/09 07:54:31;;;;;;;9.50;2.17;;;;;;;3.73;71.18;100725.28;5092313;28;20027;-44
2022/04/09 07:56:57;;;;;;;10.23;2.58;;;;;;;3.87;71.46;100738.13;5092053;28;20032;-42
2022/04/09 07:59:22;;;;;;;7.53;2.25;;;;;;;3.90;70.93;100730.84;5092068;28;20061;-43
2022/04/09 08:01:48;;;;;;;8.32;2.30;;;;;;;3.95;70.84;100726.78;5093541;28;20067;-43
2022/04/09 08:04:14;;;;;;;10.10;2.50;;;;;;;4.06;70.31;100737.22;5096999;28;20048;-43
2022/04/09 08:06:40;;;;;;;17.13;3.08;;;;;;;4.15;70.40;100742.69;5095652;28;20043;-45
2022/04/09 08:09:05;;;;;;;15.85;3.15;;;;;;;4.22;70.10;100751.75;5095533;28;20058;-46
2022/04/09 08:11:31;;;;;;;8.98;2.25;;;;;;;3.97;70.21;100695.59;5113835;28;20482;-44
2022/04/09 08:13:57;;;;;;;5.97;2.55;;;;;;;4.34;70.30;100747.91;5113842;28;20023;-44
2022/04/09 08:16:25;;;;;;;10.05;1.67;;;;;;;4.29;69.98;100739.56;5113626;28;20387;-45
2022/04/09 08:18:51;;;;;;;11.95;2.42;;;;;;;4.47;70.12;100753.72;5113948;28;20125;-44
2022/04/09 08:21:18;;;;;;;6.88;1.80;;;;;;;4.55;68.38;100746.84;5078955;28;20039;-44
2022/04/09 08:23:44;;;;;;;8.80;2.22;;;;;;;4.72;68.72;100763.81;5113813;28;20059;-44
2022/04/09 08:26:10;;;;;;;8.95;1.70;;;;;;;4.81;67.81;100761.13;5095979;28;20024;-45
2022/04/09 08:28:36;;;;;;;13.70;1.70;;;;;;;4.81;67.99;100760.28;5096200;28;20035;-46
2022/04/09 08:31:03;;;;;;;4.72;1.50;;;;;;;4.84;66.63;100752.00;5114518;28;20023;-45
2022/04/09 08:33:29;;;;;;;13.88;1.77;;;;;;;4.96;65.77;100761.47;5095792;28;20051;-44
2022/04/09 08:35:55;;;;;;;15.00;1.73;;;;;;;5.05;66.45;100762.38;5095869;28;20035;-48
2022/04/09 08:38:21;;;;;;;4.07;1.83;;;;;;;5.16;65.77;100769.31;5095457;28;20019;-44
2022/04/09 08:40:47;;;;;;;6.90;1.67;;;;;;;5.26;64.85;100779.91;5114029;28;20027;-43
2022/04/09 08:43:13;;;;;;;7.43;2.13;;;;;;;5.36;64.26;100781.50;5113428;28;20111;-44
2022/04/09 08:45:40;;;;;;;10.05;2.40;;;;;;;5.44;64.06;100780.72;5113703;28;20509;-46
2022/04/09 08:48:07;;;;;;;6.68;1.60;;;;;;;5.56;63.55;100781.34;5095439;28;20034;-45
2022/04/09 08:50:35;;;;;;;11.68;1.80;;;;;;;5.75;62.05;100788.34;5097273;28;20371;-44
2022/04/09 08:53:06;;;;;;;8.45;1.35;;;;;;;5.82;61.09;100773.41;5098556;28;20034;-44
2022/04/09 08:55:35;;;;;;;15.57;1.88;;;;;;;5.99;60.12;100793.88;5116961;28;20059;-47
2022/04/09 08:58:01;;;;;;;12.45;1.60;;;;;;;6.06;60.31;100798.59;5117261;28;20155;-47
2022/04/09 09:00:27;;;;;;;19.30;1.90;;;;;;;6.14;60.86;100801.31;5117499;28;20161;-43
2022/04/09 09:02:56;;;;;;;12.23;1.42;;;;;;;6.19;58.43;100796.38;5098690;28;20073;-44
2022/04/09 09:05:40;;;;;;;9.05;1.10;;;;;;;6.33;57.54;100792.25;5116570;28;20054;-44
2022/04/09 09:08:07;;;;;;;7.65;1.40;;;;;;;6.52;57.93;100792.06;5116820;28;20042;-45
2022/04/09 09:10:34;;;;;;;8.80;2.15;;;;;;;6.75;57.99;100800.31;5116830;28;20100;-43
2022/04/09 09:13:05;;;;;;;6.03;1.30;;;;;;;6.72;56.63;100773.97;5098388;28;20168;-44
2022/04/09 09:15:46;;;;;;;7.90;1.55;;;;;;;7.11;56.67;100786.78;5117242;28;20035;-44
2022/04/09 09:18:23;;;;;;;8.45;1.17;;;;;;;7.53;55.00;100790.34;5117362;28;20042;-43
2022/04/09 09:20:52;;;;;;;10.15;1.92;;;;;;;9.11;51.59;100777.28;5116645;28;20102;-43
2022/04/09 09:23:20;;;;;;;6.55;1.38;;;;;;;10.67;46.86;100792.03;5117063;28;20031;-44
2022/04/09 09:25:49;;;;;;;10.30;2.13;;;;;;;10.44;46.20;100774.19;5098801;28;20035;-46
2022/04/09 09:28:29;;;;;;;6.53;1.40;;;;;;;11.34;42.65;100795.53;5098398;28;20031;-46
2022/04/09 09:30:57;;;;;;;4.43;1.40;;;;;;;12.30;42.82;100793.31;5116477;28;20442;-45
2022/04/09 09:33:24;;;;;;;7.50;1.50;;;;;;;12.73;39.96;100795.81;5116557;28;20472;-44
2022/04/09 09:35:54;;;;;;;7.47;1.35;;;;;;;13.91;37.90;100781.19;5116341;28;20038;-44
2022/04/09 09:38:27;;;;;;;6.63;1.85;;;;;;;14.95;37.65;100797.66;5098237;28;20019;-44
2022/04/09 09:40:56;;;;;;;5.20;1.30;;;;;;;15.94;36.44;100790.84;5097910;28;20027;-44
2022/04/09 09:43:23;;;;;;;7.03;1.60;;;;;;;14.30;39.34;100798.41;5115956;28;20049;-43
2022/04/09 09:45:50;;;;;;;2.80;0.90;;;;;;;13.23;37.77;100800.19;5115955;28;20123;-43
2022/04/09 09:48:22;;;;;;;5.88;1.45;;;;;;;13.47;36.23;100815.00;5115852;28;20456;-44
2022/04/09 09:50:49;;;;;;;6.15;1.55;;;;;;;15.24;34.75;100810.63;5115920;28;20444;-44
2022/04/09 09:53:15;;;;;;;5.28;1.15;;;;;;;15.83;33.48;100792.38;5097162;28;20039;-45
2022/04/09 09:55:43;;;;;;;3.15;0.98;;;;;;;15.62;33.49;100814.34;5115917;28;20040;-45
2022/04/09 09:58:18;;;;;;;3.47;1.40;;;;;;;16.36;32.42;100798.38;5115621;28;20019;-44
2022/04/09 10:00:44;;;;;;;5.47;1.20;;;;;;;17.29;32.49;100796.47;5097337;28;20031;-47
2022/04/09 10:03:13;;;;;;;5.18;1.52;;;;;;;17.71;31.10;100778.31;5114457;28;20027;-45
2022/04/09 10:05:41;;;;;;;6.88;1.48;;;;;;;17.46;31.79;100789.34;5115482;28;20075;-46
2022/04/09 10:08:07;;;;;;;4.60;1.40;;;;;;;15.66;34.66;100786.66;5080009;28;20030;-44
2022/04/09 10:10:37;;;;;;;6.65;1.55;;;;;;;15.90;32.46;100789.63;5097695;28;20186;-46
2022/04/09 10:13:04;;;;;;;3.83;1.50;;;;;;;17.18;29.17;100801.63;5115973;28;20028;-44
2022/04/09 10:15:31;;;;;;;6.28;1.33;;;;;;;17.56;29.08;100796.94;5097133;28;20082;-45
2022/04/09 10:17:59;;;;;;;4.47;1.30;;;;;;;18.23;29.35;100790.44;5080409;28;20023;-44
2022/04/09 10:20:26;;;;;;;5.60;1.38;;;;;;;17.90;29.95;100798.09;5080059;28;20471;-45
2022/04/09 10:22:58;;;;;;;6.57;1.70;;;;;;;17.92;29.70;100796.00;5097231;28;20032;-46
2022/04/09 10:25:28;;;;;;;5.38;1.70;;;;;;;17.97;29.69;100790.66;5115414;28;20034;-44
2022/04/09 10:28:00;;;;;;;6.32;1.50;;;;;;;19.41;27.81;100793.75;5115409;28;20293;-45
2022/04/09 10:30:26;;;;;;;4.30;1.58;;;;;;;18.40;29.07;100801.44;5097267;28;20470;-46
2022/04/09 10:32:57;;;;;;;7.43;1.65;;;;;;;19.15;27.42;100804.16;5096694;28;20028;-45
2022/04/09 10:35:46;;;;;;;4.60;1.90;;;;;;;19.97;26.70;100788.47;5115025;28;20027;-44
2022/04/09 10:38:17;;;;;;;9.13;1.70;;;;;;;17.17;28.13;100813.53;5100611;28;20031;-44
2022/04/09 10:41:23;;;;;;;4.93;1.70;;;;;;;17.55;27.69;100806.13;5096780;28;20088;-44
2022/04/09 10:43:48;;;;;;;4.22;1.40;;;;;;;17.91;29.11;100798.94;5088361;28;20142;-44
2022/04/09 10:46:21;;;;;;;2.50;1.30;;;;;;;18.76;25.76;100800.31;5114802;28;20031;-47
2022/04/09 10:48:48;;;;;;;7.07;1.40;;;;;;;20.13;26.79;100803.13;5115266;28;20034;-45
2022/04/09 10:51:16;;;;;;;4.68;1.38;;;;;;;18.29;26.54;100800.34;5114504;28;20035;-45
2022/04/09 10:53:51;;;;;;;4.65;1.20;;;;;;;18.25;26.20;100794.56;5114616;28;20114;-47
2022/04/09 10:56:27;;;;;;;5.57;1.60;;;;;;;18.80;26.10;100806.13;5115321;28;20035;-46
2022/04/09 10:59:33;;;;;;;6.85;1.60;;;;;;;19.79;25.02;100794.16;5096264;28;20093;-49
2022/04/09 11:02:06;;;;;;;4.00;1.48;;;;;;;20.54;23.77;100773.75;5071230;28;20410;-51
2022/04/09 11:04:37;;;;;;;1.92;1.20;;;;;;;19.13;23.72;100789.13;5092879;28;20055;-47
2022/04/09 11:07:09;;;;;;;2.72;1.15;;;;;;;20.04;23.61;100804.63;5094210;28;20051;-47
2022/04/09 11:09:56;;;;;;;2.45;1.10;;;;;;;21.03;21.97;100779.28;5094558;28;20027;-44
2022/04/09 11:12:27;;;;;;;8.38;1.63;;;;;;;22.02;22.20;100782.69;5094133;28;20115;-45
2022/04/09 11:14:58;;;;;;;3.00;1.40;;;;;;;21.91;24.31;100783.69;5094338;28;20111;-44
2022/04/09 11:17:28;;;;;;;4.25;1.40;;;;;;;20.70;23.95;100785.69;5093643;28;20028;-44
2022/04/09 11:20:01;;;;;;;5.13;1.60;;;;;;;19.03;23.42;100783.47;5092519;28;20039;-44
2022/04/09 11:22:32;;;;;;;3.92;1.80;;;;;;;19.18;24.87;100799.28;5092327;28;20040;-50
2022/04/09 11:24:59;;;;;;;2.28;1.10;;;;;;;18.45;25.14;100798.84;5094288;28;20055;-48
2022/04/09 11:27:28;;;;;;;3.28;1.20;;;;;;;20.48;23.93;100791.09;5093741;28;20342;-46
2022/04/09 11:29:57;;;;;;;2.17;0.88;;;;;;;20.18;23.33;100799.69;5092541;28;20039;-44
2022/04/09 11:32:26;;;;;;;3.33;0.93;;;;;;;18.35;22.27;100797.53;5093846;28;20036;-44
2022/04/09 11:35:00;;;;;;;1.40;0.65;;;;;;;19.37;20.58;100794.47;5093994;28;20474;-43